createdAt,value
2019-01-20T00:01:47.989Z,31.93
2019-01-20T00:04:14.430Z,33.80
2019-01-20T00:06:41.374Z,29.77
2019-01-20T00:09:09.649Z,33.28
2019-01-20T00:11:36.614Z,36.88
2019-01-20T00:14:03.613Z,32.67
2019-01-20T00:16:30.209Z,33.00
2019-01-20T00:18:56.760Z,36.08
2019-01-20T00:21:23.105Z,32.85
2019-01-20T00:23:49.420Z,31.90
2019-01-20T00:26:15.957Z,36.53
2019-01-20T00:28:42.463Z,34.83
2019-01-20T00:31:09.238Z,34.50
2019-01-20T00:33:36.252Z,43.40
2019-01-20T00:36:02.960Z,42.85
2019-01-20T00:38:29.472Z,40.05
2019-01-20T00:40:56.150Z,31.15
2019-01-20T00:43:22.729Z,34.43
2019-01-20T00:45:49.544Z,33.35
2019-01-20T00:48:15.911Z,34.03
2019-01-20T00:50:42.437Z,31.45
2019-01-20T00:53:09.140Z,35.13
2019-01-20T00:55:36.106Z,33.70
2019-01-20T00:58:03.399Z,34.55
2019-01-20T01:00:31.510Z,34.45
2019-01-20T01:02:58.130Z,31.55
2019-01-20T01:05:24.798Z,36.68
2019-01-20T01:07:53.411Z,37.38
2019-01-20T01:10:20.551Z,32.98
2019-01-20T01:12:48.110Z,33.78
2019-01-20T01:15:20.819Z,36.75
2019-01-20T01:17:48.091Z,35.38
2019-01-20T01:20:18.855Z,35.98
2019-01-20T01:22:45.929Z,32.48
2019-01-20T01:25:14.079Z,32.55
2019-01-20T01:27:47.186Z,35.55
2019-01-20T01:30:19.874Z,36.58
2019-01-20T01:32:47.199Z,36.10
2019-01-20T01:35:13.852Z,37.95
2019-01-20T01:37:40.496Z,39.42
2019-01-20T01:40:09.851Z,36.38
2019-01-20T01:42:36.315Z,35.90
2019-01-20T01:45:06.310Z,46.00
2019-01-20T01:47:32.800Z,34.18
2019-01-20T01:49:59.721Z,39.03
2019-01-20T01:52:26.087Z,37.78
2019-01-20T01:54:52.559Z,34.70
2019-01-20T01:57:19.184Z,40.58
2019-01-20T01:59:45.584Z,39.38
2019-01-20T02:02:12.187Z,63.50
2019-01-20T02:04:38.893Z,43.15
2019-01-20T02:07:05.500Z,37.20
2019-01-20T02:09:32.180Z,38.02
2019-01-20T02:11:58.797Z,32.08
2019-01-20T02:14:25.236Z,41.80
2019-01-20T02:16:51.776Z,36.30
2019-01-20T02:19:18.309Z,36.58
2019-01-20T02:21:45.048Z,40.78
2019-01-20T02:24:11.486Z,35.60
2019-01-20T02:26:38.149Z,42.85
2019-01-20T02:29:05.898Z,40.08
2019-01-20T02:31:33.005Z,36.98
2019-01-20T02:33:59.527Z,40.90
2019-01-20T02:36:26.102Z,38.48
2019-01-20T02:38:52.528Z,42.30
2019-01-20T02:41:18.962Z,40.03
2019-01-20T02:43:45.432Z,40.25
2019-01-20T02:46:12.365Z,39.08
2019-01-20T02:48:39.085Z,40.12
2019-01-20T02:51:08.850Z,45.08
2019-01-20T02:53:39.120Z,37.48
2019-01-20T02:56:05.697Z,39.70
2019-01-20T02:58:32.135Z,43.98
2019-01-20T03:00:58.566Z,41.23
2019-01-20T03:03:24.908Z,42.93
2019-01-20T03:05:51.621Z,43.30
2019-01-20T03:08:18.477Z,41.60
2019-01-20T03:10:45.189Z,43.40
2019-01-20T03:13:11.735Z,43.75
2019-01-20T03:15:38.972Z,47.67
2019-01-20T03:18:05.647Z,41.95
2019-01-20T03:20:32.302Z,43.92
2019-01-20T03:22:58.802Z,43.92
2019-01-20T03:25:25.329Z,43.35
2019-01-20T03:27:52.318Z,44.73
2019-01-20T03:30:20.690Z,48.02
2019-01-20T03:32:47.203Z,41.50
2019-01-20T03:35:15.421Z,40.67
2019-01-20T03:37:42.045Z,44.13
2019-01-20T03:40:11.961Z,54.80
2019-01-20T03:42:38.391Z,42.70
2019-01-20T03:45:09.242Z,40.92
2019-01-20T03:47:35.699Z,42.20
2019-01-20T03:50:03.369Z,40.35
2019-01-20T03:52:29.832Z,39.75
2019-01-20T03:54:56.346Z,48.50
2019-01-20T03:57:23.038Z,51.83
2019-01-20T03:59:50.197Z,43.33
2019-01-20T04:02:18.734Z,38.63
2019-01-20T04:04:45.368Z,43.52
2019-01-20T04:07:11.969Z,43.08
2019-01-20T04:09:38.997Z,41.95
2019-01-20T04:12:05.663Z,47.33
2019-01-20T04:14:32.315Z,45.88
2019-01-20T04:16:58.862Z,42.20
2019-01-20T04:19:25.426Z,51.85
2019-01-20T04:21:51.908Z,46.63
2019-01-20T04:24:18.480Z,47.25
2019-01-20T04:26:45.080Z,50.70
2019-01-20T04:29:11.757Z,46.90
2019-01-20T04:31:38.301Z,47.17
2019-01-20T04:34:05.372Z,49.03
2019-01-20T04:36:31.940Z,53.60
2019-01-20T04:38:58.389Z,47.80
2019-01-20T04:41:25.155Z,49.75
2019-01-20T04:43:51.962Z,46.23
2019-01-20T04:46:18.632Z,49.45
2019-01-20T04:48:45.173Z,50.03
2019-01-20T04:51:11.670Z,50.10
2019-01-20T04:53:38.668Z,50.30
2019-01-20T04:56:05.277Z,48.63
2019-01-20T04:58:31.727Z,49.40
2019-01-20T05:00:59.292Z,58.23
2019-01-20T05:03:25.686Z,48.60
2019-01-20T05:05:52.149Z,48.10
2019-01-20T05:08:18.562Z,45.35
2019-01-20T05:10:45.481Z,47.85
2019-01-20T05:13:14.943Z,45.28
2019-01-20T05:15:41.399Z,46.70
2019-01-20T05:18:10.718Z,47.35
2019-01-20T05:20:37.431Z,44.55
2019-01-20T05:23:04.033Z,46.68
2019-01-20T05:25:33.220Z,44.83
2019-01-20T05:28:03.207Z,46.28
2019-01-20T05:30:29.638Z,43.13
2019-01-20T05:32:56.136Z,47.43
2019-01-20T05:35:22.631Z,43.65
2019-01-20T05:37:49.148Z,45.73
2019-01-20T05:40:20.784Z,47.27
2019-01-20T05:42:50.143Z,42.30
2019-01-20T05:45:19.966Z,47.48
2019-01-20T05:47:46.594Z,46.80
2019-01-20T05:50:14.335Z,46.53
2019-01-20T05:52:41.031Z,45.90
2019-01-20T05:55:10.244Z,45.80
2019-01-20T05:57:39.680Z,45.83
2019-01-20T06:00:15.975Z,44.42
2019-01-20T06:02:42.840Z,46.50
2019-01-20T06:05:09.361Z,45.05
2019-01-20T06:07:36.086Z,41.30
2019-01-20T06:10:05.723Z,38.00
2019-01-20T06:12:32.279Z,44.05
2019-01-20T06:14:58.843Z,42.40
2019-01-20T06:17:25.457Z,42.53
2019-01-20T06:19:52.234Z,42.65
2019-01-20T06:22:18.859Z,42.08
2019-01-20T06:24:45.441Z,45.12
2019-01-20T06:27:12.066Z,44.50
2019-01-20T06:29:38.794Z,41.37
2019-01-20T06:32:05.434Z,46.28
2019-01-20T06:34:32.851Z,49.08
2019-01-20T06:36:59.337Z,44.03
2019-01-20T06:39:25.838Z,45.15
2019-01-20T06:41:52.440Z,45.80
2019-01-20T06:44:18.919Z,42.65
2019-01-20T06:46:45.368Z,47.98
2019-01-20T06:49:11.930Z,48.10
2019-01-20T06:51:38.598Z,41.35
2019-01-20T06:54:05.780Z,41.88
2019-01-20T06:56:32.487Z,44.05
2019-01-20T06:58:58.874Z,42.03
2019-01-20T07:01:25.593Z,50.33
2019-01-20T07:03:52.048Z,47.25
2019-01-20T07:06:18.964Z,39.20
2019-01-20T07:08:45.600Z,44.13
2019-01-20T07:11:12.619Z,42.95
2019-01-20T07:13:39.623Z,43.28
2019-01-20T07:16:06.205Z,44.13
2019-01-20T07:18:33.096Z,44.63
2019-01-20T07:20:59.928Z,43.68
2019-01-20T07:23:26.586Z,47.75
2019-01-20T07:25:53.356Z,45.20
2019-01-20T07:28:19.891Z,39.42
2019-01-20T07:30:46.424Z,41.45
2019-01-20T07:33:13.186Z,39.98
2019-01-20T07:35:39.918Z,38.63
2019-01-20T07:38:06.474Z,41.98
2019-01-20T07:40:35.041Z,46.85
2019-01-20T07:43:01.949Z,43.92
2019-01-20T07:45:28.413Z,43.17
2019-01-20T07:47:55.420Z,45.17
2019-01-20T07:50:24.033Z,41.65
2019-01-20T07:52:50.548Z,45.10
2019-01-20T07:55:17.499Z,45.45
2019-01-20T07:57:44.496Z,54.13
2019-01-20T08:00:16.236Z,49.42
2019-01-20T08:02:42.785Z,45.40
2019-01-20T08:05:09.904Z,48.50
2019-01-20T08:07:36.387Z,51.50
2019-01-20T08:10:35.638Z,54.67
2019-01-20T08:13:03.471Z,55.98
2019-01-20T08:15:30.214Z,50.33
2019-01-20T08:17:56.660Z,44.85
2019-01-20T08:20:24.016Z,49.80
2019-01-20T08:22:52.419Z,50.28
2019-01-20T08:25:19.661Z,51.98
2019-01-20T08:27:46.231Z,50.23
2019-01-20T08:30:17.659Z,53.83
2019-01-20T08:32:47.564Z,54.30
2019-01-20T08:35:14.310Z,49.35
2019-01-20T08:37:40.756Z,46.88
2019-01-20T08:40:10.734Z,48.08
2019-01-20T08:42:37.908Z,60.85
2019-01-20T08:45:09.007Z,51.23
2019-01-20T08:47:37.954Z,53.95
2019-01-20T08:50:07.955Z,52.25
2019-01-20T08:52:34.414Z,50.50
2019-01-20T08:55:02.679Z,47.35
2019-01-20T08:57:29.381Z,48.68
2019-01-20T08:59:56.152Z,47.43
2019-01-20T09:02:23.243Z,47.40
2019-01-20T09:04:49.693Z,51.88
2019-01-20T09:07:16.264Z,48.35
2019-01-20T09:09:43.136Z,47.00
2019-01-20T09:12:10.284Z,45.70
2019-01-20T09:14:36.995Z,43.23
2019-01-20T09:17:03.573Z,43.63
2019-01-20T09:19:30.236Z,54.45
2019-01-20T09:21:57.125Z,60.15
2019-01-20T09:24:23.421Z,53.10
2019-01-20T09:26:50.392Z,45.58
2019-01-20T09:29:17.069Z,42.88
2019-01-20T09:31:43.527Z,44.00
2019-01-20T09:34:10.097Z,42.15
2019-01-20T09:36:36.679Z,37.00
2019-01-20T09:39:08.807Z,38.53
2019-01-20T09:41:35.969Z,37.33
2019-01-20T09:44:02.659Z,34.58
2019-01-20T09:46:30.152Z,39.88
2019-01-20T09:48:56.859Z,39.25
2019-01-20T09:51:23.385Z,40.28
2019-01-20T09:53:49.834Z,39.75
2019-01-20T09:56:16.666Z,38.95
2019-01-20T09:58:43.806Z,44.13
2019-01-20T10:01:10.519Z,39.18
2019-01-20T10:03:37.168Z,44.13
2019-01-20T10:06:03.814Z,45.10
2019-01-20T10:08:30.885Z,42.20
2019-01-20T10:10:57.260Z,49.33
2019-01-20T10:13:27.166Z,44.53
2019-01-20T10:15:53.530Z,50.17
2019-01-20T10:18:20.680Z,52.93
2019-01-20T10:20:47.201Z,46.90
2019-01-20T10:23:14.446Z,57.03
2019-01-20T10:25:41.494Z,45.95
2019-01-20T10:28:09.067Z,45.90
2019-01-20T10:30:39.623Z,45.73
2019-01-20T10:33:06.644Z,47.55
2019-01-20T10:35:35.247Z,53.35
2019-01-20T10:38:04.330Z,46.70
2019-01-20T10:40:32.306Z,47.50
2019-01-20T10:42:58.835Z,51.35
2019-01-20T10:45:27.062Z,45.23
2019-01-20T10:47:53.829Z,45.48
2019-01-20T10:50:20.392Z,40.15
2019-01-20T10:52:47.356Z,46.18
2019-01-20T10:55:13.815Z,36.65
2019-01-20T10:57:40.673Z,43.25
2019-01-20T11:00:19.652Z,48.60
2019-01-20T11:02:46.224Z,43.42
2019-01-20T11:05:13.201Z,42.25
2019-01-20T11:07:39.872Z,40.90
2019-01-20T11:10:09.699Z,39.48
2019-01-20T11:12:45.369Z,42.58
2019-01-20T11:15:14.436Z,41.73
2019-01-20T11:17:41.138Z,35.95
2019-01-20T11:20:10.840Z,31.60
2019-01-20T11:22:38.813Z,40.52
2019-01-20T11:25:09.168Z,32.05
2019-01-20T11:27:35.678Z,33.85
2019-01-20T11:30:04.260Z,34.80
2019-01-20T11:32:30.847Z,36.83
2019-01-20T11:34:57.356Z,34.90
2019-01-20T11:37:23.962Z,37.93
2019-01-20T11:39:52.015Z,36.25
2019-01-20T11:42:18.614Z,35.63
2019-01-20T11:44:45.360Z,33.15
2019-01-20T11:47:12.053Z,36.40
2019-01-20T11:49:38.905Z,38.08
2019-01-20T11:52:05.555Z,39.90
2019-01-20T11:54:32.189Z,37.67
2019-01-20T11:56:58.958Z,43.08
2019-01-20T11:59:25.226Z,41.88
2019-01-20T12:01:51.850Z,45.43
2019-01-20T12:04:18.807Z,46.80
2019-01-20T12:06:45.267Z,47.70
2019-01-20T12:09:12.521Z,49.27
2019-01-20T12:11:38.988Z,47.80
2019-01-20T12:14:05.488Z,45.45
2019-01-20T12:16:31.986Z,46.10
2019-01-20T12:18:58.473Z,55.60
2019-01-20T12:21:24.868Z,42.15
2019-01-20T12:23:54.463Z,43.40
2019-01-20T12:26:21.361Z,49.70
2019-01-20T12:28:47.922Z,47.23
2019-01-20T12:31:14.406Z,47.33
2019-01-20T12:33:44.553Z,47.48
2019-01-20T12:36:11.359Z,43.68
2019-01-20T12:38:38.175Z,43.87
2019-01-20T12:41:06.626Z,38.70
2019-01-20T12:43:33.805Z,44.23
2019-01-20T12:46:00.985Z,44.53
2019-01-20T12:48:27.479Z,38.80
2019-01-20T12:50:54.070Z,45.10
2019-01-20T12:53:21.022Z,46.00
2019-01-20T12:55:47.499Z,39.15
2019-01-20T12:58:14.194Z,41.02
2019-01-20T13:00:41.295Z,43.45
2019-01-20T13:03:08.391Z,43.75
2019-01-20T13:05:34.911Z,42.15
2019-01-20T13:08:01.802Z,42.58
2019-01-20T13:10:28.078Z,45.00
2019-01-20T13:12:54.665Z,46.02
2019-01-20T13:15:22.600Z,45.23
2019-01-20T13:17:49.173Z,46.13
2019-01-20T13:20:20.170Z,41.00
2019-01-20T13:22:46.689Z,44.93
2019-01-20T13:25:17.145Z,42.00
2019-01-20T13:27:43.998Z,47.55
2019-01-20T13:30:16.444Z,40.08
2019-01-20T13:32:43.665Z,45.58
2019-01-20T13:35:10.893Z,41.50
2019-01-20T13:37:40.993Z,45.45
2019-01-20T13:40:21.751Z,46.10
2019-01-20T13:42:48.906Z,45.45
2019-01-20T13:45:15.671Z,45.28
2019-01-20T13:47:48.455Z,46.95
2019-01-20T13:50:14.135Z,41.05
2019-01-20T13:52:41.222Z,44.83
2019-01-20T13:55:10.637Z,44.53
2019-01-20T13:57:43.720Z,47.65
2019-01-20T14:00:31.303Z,37.00
2019-01-20T14:03:05.119Z,41.42
2019-01-20T14:05:34.981Z,46.28
2019-01-20T14:08:02.169Z,37.40
2019-01-20T14:10:29.783Z,37.13
2019-01-20T14:12:56.346Z,36.03
2019-01-20T14:15:22.655Z,40.00
2019-01-20T14:17:49.086Z,36.08
2019-01-20T14:20:21.925Z,40.33
2019-01-20T14:22:48.581Z,34.67
2019-01-20T14:25:18.828Z,38.02
2019-01-20T14:27:48.289Z,42.95
2019-01-20T14:30:17.919Z,41.70
2019-01-20T14:32:44.507Z,44.95
2019-01-20T14:35:11.604Z,39.58
2019-01-20T14:37:38.347Z,42.10
2019-01-20T14:40:11.279Z,44.53
2019-01-20T14:42:37.808Z,41.83
2019-01-20T14:45:07.579Z,45.58
2019-01-20T14:47:34.282Z,47.08
2019-01-20T14:50:00.833Z,41.30
2019-01-20T14:52:27.554Z,42.50
2019-01-20T14:54:54.030Z,46.45
2019-01-20T14:57:20.696Z,42.78
2019-01-20T14:59:47.411Z,43.00
2019-01-20T15:02:14.529Z,44.98
2019-01-20T15:04:42.650Z,43.10
2019-01-20T15:07:09.064Z,43.28
2019-01-20T15:09:35.928Z,43.80
2019-01-20T15:12:02.512Z,47.58
2019-01-20T15:14:28.952Z,46.40
2019-01-20T15:16:55.547Z,51.35
2019-01-20T15:19:25.051Z,43.75
2019-01-20T15:21:51.577Z,47.55
2019-01-20T15:24:18.127Z,46.13
2019-01-20T15:29:38.034Z,58.58
2019-01-20T15:32:05.091Z,49.23
2019-01-20T15:34:32.145Z,43.83
2019-01-20T15:36:58.477Z,52.27
2019-01-20T15:39:25.180Z,51.37
2019-01-20T15:41:52.293Z,49.67
2019-01-20T15:44:19.095Z,48.10
2019-01-20T15:46:45.535Z,46.33
2019-01-20T15:49:12.807Z,50.15
2019-01-20T15:51:43.054Z,43.35
2019-01-20T15:54:09.591Z,44.98
2019-01-20T15:56:42.908Z,44.42
2019-01-20T15:59:09.375Z,50.08
2019-01-20T16:01:35.806Z,47.95
2019-01-20T16:04:02.419Z,49.08
2019-01-20T16:06:28.674Z,46.20
2019-01-20T16:08:54.964Z,55.88
2019-01-20T16:11:21.743Z,46.42
2019-01-20T16:13:48.426Z,49.85
2019-01-20T16:16:15.315Z,46.00
2019-01-20T16:18:41.765Z,43.90
2019-01-20T16:21:08.423Z,56.35
2019-01-20T16:23:34.967Z,50.05
2019-01-20T16:26:01.521Z,43.08
2019-01-20T16:28:27.856Z,44.40
2019-01-20T16:30:54.628Z,43.48
2019-01-20T16:33:24.928Z,40.30
2019-01-20T16:35:51.256Z,43.70
2019-01-20T16:38:18.197Z,46.02
2019-01-20T16:40:44.686Z,42.78
2019-01-20T16:43:11.459Z,45.38
2019-01-20T16:45:42.042Z,41.65
2019-01-20T16:48:08.375Z,38.17
2019-01-20T16:50:35.964Z,44.08
2019-01-20T16:53:02.682Z,40.35
2019-01-20T16:55:29.509Z,37.08
2019-01-20T16:57:55.787Z,46.40
2019-01-20T17:00:24.520Z,41.45
2019-01-20T17:02:51.430Z,35.92
2019-01-20T17:05:21.139Z,40.38
2019-01-20T17:07:47.971Z,42.73
2019-01-20T17:10:40.124Z,42.80
2019-01-20T17:13:08.069Z,42.53
2019-01-20T17:15:39.891Z,43.00
2019-01-20T17:18:07.236Z,42.98
2019-01-20T17:20:35.089Z,47.27
2019-01-20T17:23:01.960Z,48.70
2019-01-20T17:25:28.616Z,43.63
2019-01-20T17:27:58.737Z,46.05
2019-01-20T17:30:28.847Z,45.83
2019-01-20T17:32:55.308Z,43.65
2019-01-20T17:35:21.905Z,46.53
2019-01-20T17:37:49.657Z,44.20
2019-01-20T17:40:21.671Z,46.42
2019-01-20T17:42:48.736Z,50.08
2019-01-20T17:45:19.240Z,46.77
2019-01-20T17:47:45.679Z,42.55
2019-01-20T17:50:18.378Z,41.37
2019-01-20T17:52:45.114Z,43.90
2019-01-20T17:55:11.772Z,44.83
2019-01-20T17:57:38.852Z,48.15
2019-01-20T18:00:15.686Z,41.95
2019-01-20T18:02:42.388Z,52.20
2019-01-20T18:05:12.280Z,45.43
2019-01-20T18:07:38.982Z,45.03
2019-01-20T18:10:08.801Z,44.38
2019-01-20T18:12:35.394Z,49.33
2019-01-20T18:15:02.530Z,44.95
2019-01-20T18:17:28.962Z,47.65
2019-01-20T18:19:55.392Z,45.58
2019-01-20T18:22:21.939Z,53.17
2019-01-20T18:24:49.236Z,45.90
2019-01-20T18:27:15.759Z,64.47
2019-01-20T18:29:42.429Z,48.10
2019-01-20T18:32:09.302Z,47.98
2019-01-20T18:34:35.697Z,53.80
2019-01-20T18:37:02.539Z,44.98
2019-01-20T18:39:29.030Z,53.63
2019-01-20T18:41:55.335Z,45.95
2019-01-20T18:44:22.039Z,45.28
2019-01-20T18:46:48.777Z,47.33
2019-01-20T18:49:15.466Z,49.18
2019-01-20T18:51:41.942Z,52.40
2019-01-20T18:54:08.496Z,49.77
2019-01-20T18:56:35.163Z,54.90
2019-01-20T18:59:01.625Z,42.80
2019-01-20T19:01:28.120Z,47.20
2019-01-20T19:03:56.729Z,47.80
2019-01-20T19:06:23.209Z,51.77
2019-01-20T19:08:50.243Z,50.15
2019-01-20T19:11:17.149Z,43.28
2019-01-20T19:13:44.011Z,53.02
2019-01-20T19:16:10.607Z,53.87
2019-01-20T19:18:37.198Z,48.90
2019-01-20T19:21:03.930Z,45.50
2019-01-20T19:23:30.615Z,45.10
2019-01-20T19:25:58.317Z,44.10
2019-01-20T19:28:27.029Z,48.95
2019-01-20T19:30:55.314Z,47.13
2019-01-20T19:33:21.578Z,46.48
2019-01-20T19:35:48.058Z,50.55
2019-01-20T19:38:14.702Z,41.60
2019-01-20T19:40:41.348Z,47.43
2019-01-20T19:43:08.448Z,40.67
2019-01-20T19:45:35.850Z,49.83
2019-01-20T19:48:02.533Z,51.90
2019-01-20T19:50:29.207Z,56.40
2019-01-20T19:52:55.720Z,43.98
2019-01-20T19:55:26.492Z,46.90
2019-01-20T19:57:54.892Z,56.95
2019-01-20T20:00:27.118Z,50.00
2019-01-20T20:02:53.584Z,53.13
2019-01-20T20:05:21.144Z,55.43
2019-01-20T20:07:48.135Z,52.83
2019-01-20T20:10:20.250Z,52.75
2019-01-20T20:12:47.075Z,53.98
2019-01-20T20:15:16.692Z,55.92
2019-01-20T20:17:43.611Z,55.12
2019-01-20T20:20:15.341Z,51.13
2019-01-20T20:22:41.744Z,63.63
2019-01-20T20:25:13.209Z,54.10
2019-01-20T20:27:39.599Z,49.42
2019-01-20T20:30:13.163Z,52.83
2019-01-20T20:32:42.407Z,50.65
2019-01-20T20:35:09.288Z,47.08
2019-01-20T20:37:35.824Z,50.08
2019-01-20T20:40:05.920Z,52.60
2019-01-20T20:42:33.790Z,47.17
2019-01-20T20:45:01.242Z,47.95
2019-01-20T20:47:27.580Z,50.98
2019-01-20T20:49:56.981Z,44.88
2019-01-20T20:52:23.712Z,48.85
2019-01-20T20:54:50.022Z,47.48
2019-01-20T20:57:16.445Z,61.37
2019-01-20T20:59:54.674Z,48.63
2019-01-20T21:02:20.138Z,46.28
2019-01-20T21:04:46.405Z,46.63
2019-01-20T21:07:13.492Z,49.45
2019-01-20T21:09:39.944Z,51.90
2019-01-20T21:12:06.429Z,50.58
2019-01-20T21:14:33.420Z,47.93
2019-01-20T21:17:00.105Z,50.73
2019-01-20T21:19:26.921Z,48.48
2019-01-20T21:21:53.191Z,49.23
2019-01-20T21:24:19.477Z,52.70
2019-01-20T21:26:48.502Z,59.48
2019-01-20T21:29:14.830Z,48.17
2019-01-20T21:31:41.749Z,51.15
2019-01-20T21:34:07.979Z,44.93
2019-01-20T21:36:34.289Z,49.38
2019-01-20T21:39:01.462Z,48.55
2019-01-20T21:41:28.079Z,45.92
2019-01-20T21:43:55.081Z,51.92
2019-01-20T21:46:21.717Z,53.33
2019-01-20T21:48:48.460Z,48.85
2019-01-20T21:51:15.219Z,47.13
2019-01-20T21:53:41.903Z,50.33
2019-01-20T21:56:08.731Z,47.15
2019-01-20T21:58:35.262Z,49.33
2019-01-20T22:01:01.786Z,50.95
2019-01-20T22:03:28.367Z,52.03
2019-01-20T22:05:55.115Z,50.78
2019-01-20T22:08:21.502Z,52.35
2019-01-20T22:10:48.464Z,48.90
2019-01-20T22:13:15.454Z,49.50
2019-01-20T22:15:42.600Z,54.20
2019-01-20T22:18:09.225Z,52.20
2019-01-20T22:20:36.031Z,54.00
2019-01-20T22:23:03.075Z,56.25
2019-01-20T22:25:30.220Z,50.90
2019-01-20T22:27:57.158Z,49.33
2019-01-20T22:30:24.800Z,49.48
2019-01-20T22:32:51.664Z,62.43
2019-01-20T22:35:18.098Z,55.67
2019-01-20T22:37:45.276Z,57.20
2019-01-20T22:40:14.464Z,48.50
2019-01-20T22:42:46.989Z,50.10
2019-01-20T22:45:23.983Z,47.08
2019-01-20T22:47:53.905Z,53.42
2019-01-20T22:50:22.351Z,54.95
2019-01-20T22:52:49.099Z,52.43
2019-01-20T22:55:16.386Z,53.25
2019-01-20T22:57:43.129Z,53.17
2019-01-20T23:00:13.820Z,54.08
2019-01-20T23:02:40.332Z,55.63
2019-01-20T23:05:07.111Z,51.35
2019-01-20T23:07:34.069Z,55.25
2019-01-20T23:10:00.798Z,62.05
2019-01-20T23:12:28.395Z,55.83
2019-01-20T23:14:58.064Z,51.83
2019-01-20T23:17:24.435Z,51.33
2019-01-20T23:19:50.926Z,54.00
2019-01-20T23:22:17.567Z,56.60
2019-01-20T23:24:44.198Z,57.23
2019-01-20T23:27:10.466Z,49.25
2019-01-20T23:29:37.695Z,52.88
2019-01-20T23:32:04.510Z,49.05
2019-01-20T23:34:30.950Z,55.63
2019-01-20T23:36:59.497Z,53.40
2019-01-20T23:39:27.832Z,53.00
2019-01-20T23:41:54.345Z,59.15
2019-01-20T23:44:21.114Z,56.60
2019-01-20T23:46:47.832Z,54.67
2019-01-20T23:49:14.944Z,56.83
2019-01-20T23:51:41.615Z,54.50
2019-01-20T23:54:08.208Z,64.75
2019-01-20T23:56:34.793Z,54.20
2019-01-20T23:59:01.645Z,53.02
